createdAt,value
2018-06-05T00:02:23.315Z,5.63
2018-06-05T00:04:54.975Z,6.60
2018-06-05T00:07:26.483Z,5.83
2018-06-05T00:09:59.401Z,6.63
2018-06-05T00:12:30.982Z,5.93
2018-06-05T00:15:02.622Z,5.77
2018-06-05T00:17:34.173Z,7.03
2018-06-05T00:20:05.866Z,5.97
2018-06-05T00:22:37.748Z,6.07
2018-06-05T00:25:09.354Z,7.07
2018-06-05T00:27:41.004Z,6.80
2018-06-05T00:30:12.756Z,7.80
2018-06-05T00:32:44.554Z,6.40
2018-06-05T00:35:16.335Z,6.00
2018-06-05T00:37:47.965Z,5.90
2018-06-05T00:40:19.596Z,5.33
2018-06-05T00:42:51.269Z,5.23
2018-06-05T00:45:22.822Z,4.80
2018-06-05T00:47:54.594Z,5.77
2018-06-05T00:50:26.376Z,6.27
2018-06-05T00:52:57.978Z,5.80
2018-06-05T00:55:29.637Z,5.40
2018-06-05T00:58:01.189Z,6.47
2018-06-05T01:00:32.850Z,5.83
2018-06-05T01:03:05.449Z,6.93
2018-06-05T01:05:37.240Z,6.87
2018-06-05T01:08:08.873Z,7.00
2018-06-05T01:10:40.600Z,7.13
2018-06-05T01:13:12.194Z,5.70
2018-06-05T01:15:43.969Z,5.60
2018-06-05T01:18:15.609Z,6.63
2018-06-05T01:20:47.328Z,7.67
2018-06-05T01:23:18.495Z,6.13
2018-06-05T01:25:50.756Z,6.57
2018-06-05T01:28:22.454Z,8.00
2018-06-05T01:30:54.081Z,6.80
2018-06-05T01:33:25.772Z,7.13
2018-06-05T01:35:57.401Z,6.90
2018-06-05T01:38:28.981Z,8.27
2018-06-05T01:41:00.612Z,8.17
2018-06-05T01:43:32.353Z,7.83
2018-06-05T01:46:03.921Z,7.40
2018-06-05T01:48:35.642Z,7.43
2018-06-05T01:51:07.214Z,6.27
2018-06-05T01:53:38.833Z,7.17
2018-06-05T01:56:10.344Z,6.93
2018-06-05T01:58:42.088Z,6.67
2018-06-05T02:01:13.670Z,5.73
2018-06-05T02:03:45.375Z,5.33
2018-06-05T02:06:16.957Z,6.53
2018-06-05T02:08:48.653Z,5.97
2018-06-05T02:11:20.352Z,4.97
2018-06-05T02:13:51.965Z,6.20
2018-06-05T02:16:23.569Z,8.20
2018-06-05T02:18:55.322Z,7.13
2018-06-05T02:21:26.889Z,7.90
2018-06-05T02:23:58.507Z,8.10
2018-06-05T02:26:30.085Z,6.13
2018-06-05T02:29:01.607Z,8.50
2018-06-05T02:31:33.213Z,9.90
2018-06-05T02:34:05.054Z,8.43
2018-06-05T02:36:37.034Z,7.30
2018-06-05T02:39:09.365Z,6.63
2018-06-05T02:41:40.941Z,5.60
2018-06-05T02:44:12.574Z,7.47
2018-06-05T02:46:44.320Z,6.33
2018-06-05T02:49:15.981Z,8.03
2018-06-05T02:51:47.685Z,6.37
2018-06-05T02:54:19.346Z,7.33
2018-06-05T02:56:51.099Z,7.03
2018-06-05T02:59:22.842Z,6.67
2018-06-05T03:01:54.554Z,7.00
2018-06-05T03:04:26.149Z,6.62
2018-06-05T03:06:57.825Z,6.17
2018-06-05T03:09:29.416Z,7.27
2018-06-05T03:12:01.136Z,7.27
2018-06-05T03:14:32.828Z,6.50
2018-06-05T03:17:04.554Z,7.67
2018-06-05T03:19:36.258Z,9.63
2018-06-05T03:22:07.963Z,8.87
2018-06-05T03:24:39.579Z,8.40
2018-06-05T03:27:11.181Z,7.07
2018-06-05T03:29:42.792Z,7.43
2018-06-05T03:32:14.583Z,8.37
2018-06-05T03:34:46.136Z,5.80
2018-06-05T03:37:17.997Z,7.73
2018-06-05T03:39:49.857Z,7.30
2018-06-05T03:42:21.448Z,6.40
2018-06-05T03:44:53.130Z,6.57
2018-06-05T03:47:24.752Z,6.40
2018-06-05T03:49:56.497Z,7.43
2018-06-05T03:52:28.077Z,6.10
2018-06-05T03:54:59.766Z,6.67
2018-06-05T03:57:31.354Z,7.17
2018-06-05T04:00:03.136Z,6.30
2018-06-05T04:02:34.974Z,7.67
2018-06-05T04:05:06.745Z,6.47
2018-06-05T04:07:38.290Z,6.07
2018-06-05T04:10:09.943Z,5.70
2018-06-05T04:12:41.610Z,6.13
2018-06-05T04:15:13.184Z,5.40
2018-06-05T04:17:44.923Z,6.53
2018-06-05T04:20:16.500Z,5.60
2018-06-05T04:22:48.232Z,5.57
2018-06-05T04:25:19.820Z,4.33
2018-06-05T04:27:51.601Z,5.17
2018-06-05T04:30:23.396Z,5.67
2018-06-05T04:32:55.061Z,5.00
2018-06-05T04:35:26.773Z,4.47
2018-06-05T04:37:58.410Z,4.50
2018-06-05T04:40:30.227Z,5.20
2018-06-05T04:43:01.788Z,5.30
2018-06-05T04:45:33.445Z,5.73
2018-06-05T04:48:05.157Z,5.97
2018-06-05T04:50:36.839Z,6.07
2018-06-05T04:53:08.659Z,5.60
2018-06-05T04:55:40.286Z,5.77
2018-06-05T04:58:11.938Z,5.47
2018-06-05T05:00:43.593Z,5.30
2018-06-05T05:03:15.254Z,4.90
2018-06-05T05:05:46.359Z,5.13
2018-06-05T05:08:17.949Z,4.87
2018-06-05T05:10:49.497Z,4.23
2018-06-05T05:13:21.160Z,3.67
2018-06-05T05:15:52.708Z,3.30
2018-06-05T05:18:24.357Z,4.60
2018-06-05T05:20:55.973Z,4.67
2018-06-05T05:23:27.679Z,4.30
2018-06-05T05:25:59.140Z,4.23
2018-06-05T05:28:30.841Z,4.17
2018-06-05T05:31:02.476Z,3.20
2018-06-05T05:33:34.224Z,3.50
2018-06-05T05:36:06.155Z,4.23
2018-06-05T05:38:37.749Z,4.23
2018-06-05T05:41:09.352Z,8.70
2018-06-05T05:43:41.040Z,7.93
2018-06-05T05:46:12.630Z,3.60
2018-06-05T05:48:44.340Z,3.50
2018-06-05T05:51:15.892Z,3.67
2018-06-05T05:53:47.479Z,4.10
2018-06-05T05:56:19.315Z,4.57
2018-06-05T05:58:51.027Z,4.90
2018-06-05T06:01:22.651Z,11.37
2018-06-05T06:03:54.289Z,8.30
2018-06-05T06:06:25.838Z,4.40
2018-06-05T06:08:57.550Z,3.80
2018-06-05T06:11:29.185Z,6.93
2018-06-05T06:14:00.928Z,12.30
2018-06-05T06:16:32.569Z,11.87
2018-06-05T06:19:04.240Z,9.43
2018-06-05T06:21:35.880Z,7.30
2018-06-05T06:24:07.536Z,8.47
2018-06-05T06:26:39.083Z,5.80
2018-06-05T06:29:10.760Z,11.20
2018-06-05T06:31:42.455Z,13.13
2018-06-05T06:34:14.091Z,12.10
2018-06-05T06:36:45.729Z,12.20
2018-06-05T06:39:17.485Z,11.80
2018-06-05T06:41:49.022Z,6.90
2018-06-05T06:44:20.601Z,6.07
2018-06-05T06:46:52.246Z,4.50
2018-06-05T06:49:23.941Z,5.17
2018-06-05T06:51:55.513Z,9.87
2018-06-05T06:54:27.269Z,5.60
2018-06-05T06:56:58.822Z,3.93
2018-06-05T06:59:30.426Z,4.53
2018-06-05T07:02:02.070Z,8.20
2018-06-05T07:04:33.750Z,8.97
2018-06-05T07:07:05.495Z,12.50
2018-06-05T07:09:37.239Z,10.30
2018-06-05T07:12:08.836Z,12.03
2018-06-05T07:14:40.457Z,8.50
2018-06-05T07:17:12.123Z,6.07
2018-06-05T07:19:43.670Z,9.43
2018-06-05T07:22:15.249Z,8.90
2018-06-05T07:24:47.023Z,7.17
2018-06-05T07:27:18.664Z,4.80
2018-06-05T07:29:50.494Z,4.47
2018-06-05T07:32:22.084Z,4.83
2018-06-05T07:34:53.820Z,6.30
2018-06-05T07:37:25.502Z,5.27
2018-06-05T07:39:57.123Z,7.63
2018-06-05T07:42:28.827Z,6.60
2018-06-05T07:45:00.551Z,10.47
2018-06-05T07:47:31.669Z,7.47
2018-06-05T07:50:03.380Z,6.57
2018-06-05T07:52:35.001Z,5.47
2018-06-05T07:55:06.659Z,5.67
2018-06-05T07:57:38.366Z,6.33
2018-06-05T08:00:10.081Z,7.37
2018-06-05T08:02:41.725Z,5.33
2018-06-05T08:05:12.844Z,8.67
2018-06-05T08:07:44.433Z,8.20
2018-06-05T08:10:16.120Z,9.07
2018-06-05T08:12:47.845Z,7.30
2018-06-05T08:15:19.417Z,7.03
2018-06-05T08:17:51.056Z,7.80
2018-06-05T08:20:22.709Z,6.60
2018-06-05T08:22:56.656Z,9.20
2018-06-05T08:25:28.385Z,5.73
2018-06-05T08:28:00.029Z,7.20
2018-06-05T08:30:31.782Z,8.50
2018-06-05T08:33:03.456Z,7.73
2018-06-05T08:35:35.113Z,8.27
2018-06-05T08:38:06.768Z,7.07
2018-06-05T08:40:38.593Z,5.80
2018-06-05T08:43:10.484Z,5.57
2018-06-05T08:45:42.129Z,5.73
2018-06-05T08:48:13.713Z,6.30
2018-06-05T08:50:45.449Z,5.20
2018-06-05T08:53:17.042Z,4.30
2018-06-05T08:55:48.746Z,5.93
2018-06-05T08:58:20.429Z,5.43
2018-06-05T09:00:51.975Z,4.77
2018-06-05T09:03:23.549Z,7.93
2018-06-05T09:05:55.185Z,6.30
2018-06-05T09:08:26.846Z,7.77
2018-06-05T09:10:58.480Z,6.80
2018-06-05T09:13:30.248Z,5.30
2018-06-05T09:16:02.109Z,8.13
2018-06-05T09:18:33.658Z,6.53
2018-06-05T09:21:05.389Z,5.80
2018-06-05T09:23:37.017Z,6.20
2018-06-05T09:26:08.677Z,7.23
2018-06-05T09:28:40.299Z,7.10
2018-06-05T09:31:11.990Z,5.37
2018-06-05T09:33:43.645Z,5.20
2018-06-05T09:36:15.277Z,5.77
2018-06-05T09:38:46.933Z,6.97
2018-06-05T09:41:18.790Z,7.33
2018-06-05T09:43:50.508Z,6.63
2018-06-05T09:46:22.309Z,7.97
2018-06-05T09:48:53.950Z,7.77
2018-06-05T09:51:25.669Z,6.00
2018-06-05T09:53:57.299Z,7.00
2018-06-05T09:56:28.956Z,6.67
2018-06-05T09:59:00.611Z,5.30
2018-06-05T10:01:32.286Z,4.57
2018-06-05T10:04:03.897Z,6.60
2018-06-05T10:06:35.609Z,7.10
2018-06-05T10:09:08.921Z,7.10
2018-06-05T10:11:40.627Z,5.43
2018-06-05T10:14:12.267Z,6.67
2018-06-05T10:16:44.147Z,6.70
2018-06-05T10:19:15.788Z,5.87
2018-06-05T10:21:47.445Z,4.90
2018-06-05T10:24:19.021Z,6.50
2018-06-05T10:26:50.853Z,6.53
2018-06-05T10:29:22.509Z,5.80
2018-06-05T10:31:54.219Z,3.90
2018-06-05T10:34:25.778Z,6.67
2018-06-05T10:36:57.576Z,4.27
2018-06-05T10:39:29.137Z,5.60
2018-06-05T10:42:00.857Z,6.60
2018-06-05T10:44:32.481Z,5.43
2018-06-05T10:47:04.258Z,4.87
2018-06-05T10:49:35.892Z,4.90
2018-06-05T10:52:07.828Z,4.87
2018-06-05T10:54:39.488Z,4.27
2018-06-05T10:57:11.298Z,5.20
2018-06-05T10:59:43.006Z,4.77
2018-06-05T11:02:14.548Z,5.07
2018-06-05T11:04:46.373Z,4.67
2018-06-05T11:07:17.969Z,4.90
2018-06-05T11:09:49.630Z,4.33
2018-06-05T11:12:21.280Z,4.23
2018-06-05T11:14:52.875Z,4.83
2018-06-05T11:17:24.597Z,4.03
2018-06-05T11:19:56.181Z,4.17
2018-06-05T11:22:27.912Z,3.60
2018-06-05T11:24:59.505Z,4.20
2018-06-05T11:27:31.281Z,5.80
2018-06-05T11:30:02.983Z,3.90
2018-06-05T11:32:34.732Z,4.90
2018-06-05T11:35:06.502Z,4.53
2018-06-05T11:37:38.170Z,3.77
2018-06-05T11:40:09.805Z,3.77
2018-06-05T11:42:40.934Z,5.23
2018-06-05T11:45:12.543Z,3.83
2018-06-05T11:47:44.324Z,4.23
2018-06-05T11:50:15.972Z,5.53
2018-06-05T11:52:47.779Z,3.40
2018-06-05T11:55:19.372Z,3.40
2018-06-05T11:57:51.019Z,3.77
2018-06-05T12:00:22.984Z,5.53
2018-06-05T12:02:54.783Z,5.40
2018-06-05T12:05:26.408Z,4.77
2018-06-05T12:07:58.144Z,5.40
2018-06-05T12:10:29.816Z,4.50
2018-06-05T12:13:01.451Z,3.90
2018-06-05T12:15:33.114Z,3.17
2018-06-05T12:18:04.752Z,3.83
2018-06-05T12:20:36.344Z,3.33
2018-06-05T12:23:08.082Z,5.30
2018-06-05T12:25:39.697Z,4.53
2018-06-05T12:28:11.461Z,3.63
2018-06-05T12:30:43.190Z,5.90
2018-06-05T12:33:15.023Z,4.83
2018-06-05T12:35:46.589Z,5.23
2018-06-05T12:38:18.338Z,4.77
2018-06-05T12:40:49.986Z,5.70
2018-06-05T12:43:22.471Z,4.23
2018-06-05T12:45:54.220Z,5.20
2018-06-05T12:48:25.964Z,3.67
2018-06-05T12:50:57.533Z,5.87
2018-06-05T12:53:29.193Z,5.33
2018-06-05T12:56:00.769Z,4.50
2018-06-05T12:58:32.320Z,3.70
2018-06-05T13:01:04.050Z,4.67
2018-06-05T13:03:35.644Z,5.63
2018-06-05T13:06:07.464Z,4.90
2018-06-05T13:08:38.628Z,5.83
2018-06-05T13:11:10.170Z,5.90
2018-06-05T13:13:41.824Z,3.80
2018-06-05T13:16:13.483Z,3.80
2018-06-05T13:18:45.039Z,5.90
2018-06-05T13:21:16.795Z,5.30
2018-06-05T13:23:48.366Z,5.30
2018-06-05T13:26:20.175Z,5.23
2018-06-05T13:28:51.808Z,4.90
2018-06-05T13:31:23.479Z,5.00
2018-06-05T13:33:55.106Z,4.27
2018-06-05T13:36:26.725Z,4.00
2018-06-05T13:38:58.553Z,4.93
2018-06-05T13:41:30.132Z,4.97
2018-06-05T13:44:01.765Z,5.03
2018-06-05T13:46:33.468Z,5.17
2018-06-05T13:49:05.205Z,3.90
2018-06-05T13:51:36.763Z,4.60
2018-06-05T13:54:08.426Z,5.00
2018-06-05T13:56:40.174Z,4.37
2018-06-05T13:59:11.843Z,4.63
2018-06-05T14:01:43.393Z,4.60
2018-06-05T14:04:14.503Z,5.40
2018-06-05T14:06:46.086Z,4.07
2018-06-05T14:09:18.213Z,5.17
2018-06-05T14:11:49.844Z,3.77
2018-06-05T14:14:21.598Z,2.90
2018-06-05T14:16:53.341Z,5.13
2018-06-05T14:19:25.026Z,5.83
2018-06-05T14:21:56.703Z,4.80
2018-06-05T14:24:28.337Z,3.33
2018-06-05T14:26:59.921Z,4.93
2018-06-05T14:29:31.620Z,4.20
2018-06-05T14:32:03.125Z,3.40
2018-06-05T14:34:34.757Z,3.80
2018-06-05T14:37:06.489Z,3.83
2018-06-05T14:39:37.642Z,3.20
2018-06-05T14:42:09.229Z,4.03
2018-06-05T14:44:40.994Z,4.73
2018-06-05T14:47:12.654Z,4.67
2018-06-05T14:49:44.345Z,4.90
2018-06-05T14:52:15.964Z,3.37
2018-06-05T14:54:47.761Z,4.23
2018-06-05T14:57:19.389Z,4.50
2018-06-05T14:59:50.977Z,5.40
2018-06-05T15:02:22.527Z,4.90
2018-06-05T15:04:54.085Z,4.30
2018-06-05T15:07:25.598Z,3.50
2018-06-05T15:09:57.222Z,3.27
2018-06-05T15:12:28.944Z,6.50
2018-06-05T15:15:00.533Z,5.67
2018-06-05T15:17:32.229Z,6.03
2018-06-05T15:20:03.833Z,5.70
2018-06-05T15:22:35.491Z,5.60
2018-06-05T15:25:07.071Z,4.73
2018-06-05T15:27:38.782Z,3.20
2018-06-05T15:30:09.864Z,5.30
2018-06-05T15:32:41.380Z,4.17
2018-06-05T15:35:12.547Z,3.93
2018-06-05T15:37:44.149Z,6.83
2018-06-05T15:40:15.765Z,6.73
2018-06-05T15:42:47.489Z,5.40
2018-06-05T15:45:19.193Z,5.70
2018-06-05T15:47:50.771Z,7.50
2018-06-05T15:50:22.509Z,5.47
2018-06-05T15:52:54.233Z,6.50
2018-06-05T15:55:25.813Z,4.77
2018-06-05T15:57:57.491Z,3.50
2018-06-05T16:00:29.129Z,5.23
2018-06-05T16:03:00.879Z,3.60
2018-06-05T16:05:32.478Z,7.67
2018-06-05T16:08:04.125Z,8.07
2018-06-05T16:10:35.748Z,7.03
2018-06-05T16:13:07.443Z,8.77
2018-06-05T16:15:39.230Z,9.10
2018-06-05T16:18:10.215Z,8.63
2018-06-05T16:20:41.833Z,8.30
2018-06-05T16:23:13.346Z,8.03
2018-06-05T16:25:44.949Z,9.47
2018-06-05T16:28:16.458Z,7.90
2018-06-05T16:30:48.165Z,9.73
2018-06-05T16:33:19.718Z,9.40
2018-06-05T16:35:51.367Z,7.17
2018-06-05T16:38:22.905Z,9.00
2018-06-05T16:40:54.478Z,10.97
2018-06-05T16:43:25.894Z,10.27
2018-06-05T16:45:57.481Z,9.63
2018-06-05T16:48:29.101Z,10.67
2018-06-05T16:51:00.707Z,9.03
2018-06-05T16:53:32.412Z,9.13
2018-06-05T16:56:04.196Z,10.10
2018-06-05T16:58:35.858Z,9.07
2018-06-05T17:01:07.445Z,8.33
2018-06-05T17:03:39.033Z,8.90
2018-06-05T17:06:10.745Z,9.77
2018-06-05T17:08:42.401Z,9.33
2018-06-05T17:11:14.153Z,9.33
2018-06-05T17:13:45.789Z,9.17
2018-06-05T17:16:17.529Z,8.67
2018-06-05T17:18:49.099Z,8.63
2018-06-05T17:21:20.673Z,9.90
2018-06-05T17:23:52.281Z,6.57
2018-06-05T17:26:24.074Z,8.93
2018-06-05T17:28:55.812Z,10.47
2018-06-05T17:31:27.400Z,8.23
2018-06-05T17:33:58.288Z,7.03
2018-06-05T17:36:29.824Z,8.83
2018-06-05T17:39:01.615Z,9.53
2018-06-05T17:41:33.228Z,7.80
2018-06-05T17:44:05.333Z,10.40
2018-06-05T17:46:37.181Z,7.37
2018-06-05T17:49:08.858Z,11.07
2018-06-05T17:51:40.594Z,12.90
2018-06-05T17:54:12.268Z,10.43
2018-06-05T17:56:43.869Z,12.30
2018-06-05T17:59:15.402Z,11.83
2018-06-05T18:01:47.185Z,11.53
2018-06-05T18:04:18.692Z,13.73
2018-06-05T18:06:50.493Z,11.03
2018-06-05T18:09:21.997Z,13.43
2018-06-05T18:11:53.726Z,11.93
2018-06-05T18:14:25.433Z,8.90
2018-06-05T18:16:57.105Z,10.67
2018-06-05T18:19:28.651Z,10.70
2018-06-05T18:22:00.243Z,8.77
2018-06-05T18:24:31.857Z,11.60
2018-06-05T18:27:03.533Z,13.43
2018-06-05T18:29:34.608Z,12.17
2018-06-05T18:32:06.337Z,9.40
2018-06-05T18:34:37.865Z,10.10
2018-06-05T18:37:09.532Z,11.87
2018-06-05T18:39:41.292Z,11.33
2018-06-05T18:42:12.902Z,8.40
2018-06-05T18:44:44.604Z,9.30
2018-06-05T18:47:16.274Z,9.70
2018-06-05T18:49:47.776Z,8.73
2018-06-05T18:52:19.539Z,6.40
2018-06-05T18:54:51.127Z,6.40
2018-06-05T18:57:23.009Z,7.37
2018-06-05T18:59:54.627Z,5.93
2018-06-05T19:02:26.377Z,6.17
2018-06-05T19:04:58.029Z,6.60
2018-06-05T19:07:29.629Z,6.63
2018-06-05T19:10:01.272Z,7.53
2018-06-05T19:12:32.868Z,6.23
2018-06-05T19:15:04.357Z,7.10
2018-06-05T19:17:35.979Z,6.33
2018-06-05T19:20:07.666Z,6.23
2018-06-05T19:22:39.304Z,5.87
2018-06-05T19:25:11.005Z,5.40
2018-06-05T19:27:42.599Z,6.30
2018-06-05T19:30:14.391Z,4.53
2018-06-05T19:32:45.984Z,5.40
2018-06-05T19:35:17.600Z,3.67
2018-06-05T19:37:49.285Z,4.30
2018-06-05T19:40:21.014Z,4.07
2018-06-05T19:42:52.705Z,4.43
2018-06-05T19:45:24.429Z,4.33
2018-06-05T19:47:56.137Z,5.07
2018-06-05T19:50:27.669Z,6.10
2018-06-05T19:52:59.446Z,6.23
2018-06-05T19:55:30.978Z,5.60
2018-06-05T19:58:02.452Z,6.47
2018-06-05T20:00:34.061Z,5.87
2018-06-05T20:03:05.915Z,4.97
2018-06-05T20:05:37.670Z,6.27
2018-06-05T20:08:09.184Z,5.60
2018-06-05T20:10:40.927Z,4.40
2018-06-05T20:13:12.520Z,4.70
2018-06-05T20:15:44.317Z,3.67
2018-06-05T20:18:15.820Z,3.53
2018-06-05T20:20:47.533Z,4.27
2018-06-05T20:23:19.145Z,5.93
2018-06-05T20:25:50.830Z,5.00
2018-06-05T20:28:22.417Z,6.70
2018-06-05T20:30:54.040Z,5.53
2018-06-05T20:33:25.664Z,6.73
2018-06-05T20:35:57.404Z,6.70
2018-06-05T20:38:28.969Z,5.40
2018-06-05T20:41:00.573Z,5.53
2018-06-05T20:43:32.355Z,6.10
2018-06-05T20:46:04.322Z,6.30
2018-06-05T20:48:36.020Z,5.20
2018-06-05T20:51:07.704Z,5.07
2018-06-05T20:53:39.334Z,6.73
2018-06-05T20:56:11.046Z,6.43
2018-06-05T20:58:42.650Z,6.20
2018-06-05T21:01:14.224Z,6.33
2018-06-05T21:03:45.932Z,6.57
2018-06-05T21:06:17.626Z,5.07
2018-06-05T21:08:49.345Z,6.20
2018-06-05T21:11:20.987Z,6.43
2018-06-05T21:13:52.130Z,6.67
2018-06-05T21:16:23.653Z,6.37
2018-06-05T21:18:55.273Z,6.40
2018-06-05T21:21:27.018Z,6.77
2018-06-05T21:23:58.594Z,6.40
2018-06-05T21:26:30.168Z,9.30
2018-06-05T21:29:01.832Z,6.60
2018-06-05T21:31:33.495Z,7.90
2018-06-05T21:34:05.279Z,7.00
2018-06-05T21:36:36.904Z,7.27
2018-06-05T21:39:10.588Z,7.47
2018-06-05T21:41:42.189Z,9.07
2018-06-05T21:44:13.905Z,9.23
2018-06-05T21:46:45.657Z,8.27
2018-06-05T21:49:17.316Z,7.20
2018-06-05T21:51:48.925Z,7.90
2018-06-05T21:54:20.653Z,8.07
2018-06-05T21:56:52.237Z,7.93
2018-06-05T21:59:23.891Z,6.70
2018-06-05T22:01:55.529Z,8.10
2018-06-05T22:04:27.105Z,6.10
2018-06-05T22:06:58.737Z,10.17
2018-06-05T22:09:30.358Z,10.47
2018-06-05T22:12:01.942Z,8.63
2018-06-05T22:14:33.565Z,8.77
2018-06-05T22:17:05.153Z,8.67
2018-06-05T22:19:36.855Z,8.80
2018-06-05T22:22:08.564Z,9.20
2018-06-05T22:24:40.189Z,10.80
2018-06-05T22:27:12.011Z,9.37
2018-06-05T22:29:43.678Z,10.50
2018-06-05T22:32:15.183Z,9.70
2018-06-05T22:34:46.889Z,8.50
2018-06-05T22:37:18.553Z,10.27
2018-06-05T22:39:50.121Z,10.10
2018-06-05T22:42:21.820Z,8.97
2018-06-05T22:44:53.523Z,10.40
2018-06-05T22:47:25.272Z,11.77
2018-06-05T22:49:57.160Z,11.60
2018-06-05T22:52:28.988Z,10.87
2018-06-05T22:55:00.673Z,11.27
2018-06-05T22:57:32.401Z,11.60
2018-06-05T23:00:03.498Z,10.90
2018-06-05T23:02:35.050Z,12.37
2018-06-05T23:05:06.876Z,11.60
2018-06-05T23:07:38.581Z,12.03
2018-06-05T23:10:10.289Z,12.87
2018-06-05T23:12:41.954Z,14.03
2018-06-05T23:15:13.625Z,12.40
2018-06-05T23:17:45.257Z,13.23
2018-06-05T23:20:16.965Z,13.17
2018-06-05T23:22:48.674Z,13.53
2018-06-05T23:25:20.437Z,12.40
2018-06-05T23:27:52.083Z,13.53
2018-06-05T23:30:23.753Z,14.30
2018-06-05T23:32:55.423Z,14.27
2018-06-05T23:35:27.469Z,11.70
2018-06-05T23:37:59.016Z,14.57
2018-06-05T23:40:30.770Z,16.97
2018-06-05T23:43:02.376Z,14.93
2018-06-05T23:45:34.194Z,14.17
2018-06-05T23:48:05.740Z,17.57
2018-06-05T23:50:37.438Z,16.33
2018-06-05T23:53:09.169Z,17.37
2018-06-05T23:55:40.850Z,17.17
2018-06-05T23:58:12.637Z,16.50
